createdAt,value
2022-10-07T00:00:00.170Z,6.80
2022-10-07T00:10:01.413Z,9.80
2022-10-07T00:20:01.325Z,10.60
2022-10-07T00:30:00.152Z,8.30
2022-10-07T00:40:00.996Z,10.40
2022-10-07T00:50:00.149Z,8.80
2022-10-07T01:00:00.216Z,7.70
2022-10-07T01:10:00.139Z,8.40
2022-10-07T01:20:01.086Z,8.10
2022-10-07T01:30:01.221Z,9.50
2022-10-07T01:40:01.253Z,15.60
2022-10-07T01:50:00.105Z,15.00
2022-10-07T02:00:01.274Z,10.20
2022-10-07T02:10:01.500Z,12.10
2022-10-07T02:20:01.254Z,13.20
2022-10-07T02:30:00.161Z,13.30
2022-10-07T02:40:01.015Z,26.90
2022-10-07T02:50:00.149Z,33.10
2022-10-07T03:00:01.010Z,25.00
2022-10-07T03:10:00.113Z,30.30
2022-10-07T03:20:01.066Z,34.30
2022-10-07T03:30:01.259Z,23.20
2022-10-07T03:40:01.011Z,15.90
2022-10-07T03:50:01.858Z,17.40
2022-10-07T04:00:01.710Z,17.10
2022-10-07T04:10:00.974Z,18.90
2022-10-07T04:20:00.164Z,17.00
2022-10-07T04:30:01.548Z,14.20
2022-10-07T04:40:01.502Z,13.30
2022-10-07T04:50:01.263Z,20.10
2022-10-07T05:00:00.147Z,13.90
2022-10-07T05:10:01.247Z,13.60
2022-10-07T05:20:01.484Z,13.10
2022-10-07T05:30:01.255Z,13.90
2022-10-07T05:40:00.981Z,12.90
2022-10-07T05:50:01.476Z,20.40
2022-10-07T06:00:00.174Z,11.80
2022-10-07T06:10:00.156Z,13.90
2022-10-07T06:20:01.586Z,16.20
2022-10-07T06:30:01.238Z,12.30
2022-10-07T06:40:01.169Z,18.30
2022-10-07T06:50:01.025Z,13.40
2022-10-07T07:00:01.411Z,13.70
2022-10-07T07:10:00.145Z,13.40
2022-10-07T07:20:01.058Z,11.90
2022-10-07T07:30:01.222Z,15.30
2022-10-07T07:40:00.153Z,11.10
2022-10-07T07:50:01.012Z,16.30
2022-10-07T08:00:03.174Z,9.40
2022-10-07T08:10:00.131Z,13.00
2022-10-07T08:20:01.021Z,10.50
2022-10-07T08:30:00.961Z,13.50
2022-10-07T08:40:01.641Z,12.20
2022-10-07T08:50:01.050Z,12.00
2022-10-07T09:00:00.159Z,13.40
2022-10-07T09:10:01.200Z,10.60
2022-10-07T09:20:00.195Z,18.30
2022-10-07T09:30:00.953Z,8.60
2022-10-07T09:40:01.287Z,12.80
2022-10-07T09:50:01.466Z,14.10
2022-10-07T10:00:01.256Z,16.70
2022-10-07T10:10:01.233Z,14.70
2022-10-07T10:20:01.031Z,25.30
2022-10-07T10:30:01.453Z,22.10
2022-10-07T10:50:00.983Z,279.80
2022-10-07T11:10:01.991Z,515.20
2022-10-07T11:20:01.040Z,578.30
2022-10-07T11:30:01.027Z,702.20
2022-10-07T11:40:00.144Z,747.10
2022-10-07T11:50:00.199Z,742.80
2022-10-07T12:00:01.097Z,697.00
2022-10-07T12:10:01.433Z,415.70
2022-10-07T12:20:01.028Z,293.80
2022-10-07T12:30:01.301Z,234.00
2022-10-07T12:40:01.216Z,236.30
2022-10-07T12:50:01.039Z,190.00
2022-10-07T13:00:01.243Z,185.10
2022-10-07T13:10:01.476Z,152.50
2022-10-07T13:20:01.155Z,165.30
2022-10-07T13:30:01.103Z,134.40
2022-10-07T13:40:00.277Z,114.20
2022-10-07T13:50:01.469Z,106.20
2022-10-07T14:00:01.101Z,114.20
2022-10-07T14:10:01.133Z,82.00
2022-10-07T14:20:00.199Z,127.00
2022-10-07T14:30:00.145Z,214.90
2022-10-07T14:40:01.077Z,160.30
2022-10-07T14:50:00.136Z,180.50
2022-10-07T15:00:01.233Z,203.80
2022-10-07T15:10:00.974Z,179.60
2022-10-07T15:20:00.182Z,167.90
2022-10-07T15:30:02.230Z,147.30
2022-10-07T15:40:01.619Z,199.80
2022-10-07T15:50:01.184Z,192.30
2022-10-07T16:00:00.147Z,200.50
2022-10-07T16:10:01.016Z,142.30
2022-10-07T16:20:01.033Z,134.40
2022-10-07T16:30:01.069Z,99.00
2022-10-07T16:40:02.991Z,98.10
2022-10-07T16:50:01.251Z,76.80
2022-10-07T17:00:00.152Z,52.10
2022-10-07T17:10:02.128Z,59.20
2022-10-07T17:20:02.303Z,68.90
2022-10-07T17:30:01.229Z,65.10
2022-10-07T17:40:01.238Z,50.60
2022-10-07T17:50:01.292Z,57.30
2022-10-07T18:00:01.408Z,37.20
2022-10-07T18:10:03.076Z,58.40
2022-10-07T18:20:01.554Z,41.60
2022-10-07T18:30:01.245Z,43.10
2022-10-07T18:40:01.500Z,49.50
2022-10-07T18:50:01.260Z,39.90
2022-10-07T19:00:01.232Z,49.00
2022-10-07T19:10:01.009Z,39.50
2022-10-07T19:20:01.269Z,32.30
2022-10-07T19:30:01.237Z,39.80
2022-10-07T19:50:02.134Z,33.50
2022-10-07T20:00:01.251Z,32.80
2022-10-07T20:10:01.449Z,22.90
2022-10-07T20:20:01.221Z,21.00
2022-10-07T20:30:01.183Z,24.80
2022-10-07T20:50:01.013Z,36.30
2022-10-07T21:00:00.983Z,26.40
2022-10-07T21:10:01.275Z,26.60
2022-10-07T21:20:01.017Z,24.70
2022-10-07T21:30:00.947Z,27.90
2022-10-07T21:40:00.151Z,22.30
2022-10-07T21:50:01.035Z,21.40
2022-10-07T22:00:01.453Z,14.10
2022-10-07T22:10:00.987Z,18.70
2022-10-07T22:20:00.159Z,18.00
2022-10-07T22:30:01.141Z,18.90
2022-10-07T22:40:01.498Z,32.90
2022-10-07T22:50:00.145Z,23.90
2022-10-07T23:00:00.158Z,25.10
2022-10-07T23:10:01.315Z,20.90
2022-10-07T23:20:01.842Z,19.10
2022-10-07T23:30:02.081Z,19.90
2022-10-07T23:40:01.332Z,17.80
2022-10-07T23:50:01.482Z,20.00
